createdAt,value
2019-05-23T00:00:44.516Z,13.10
2019-05-23T00:03:15.886Z,13.10
2019-05-23T00:05:47.708Z,13.10
2019-05-23T00:08:18.943Z,13.10
2019-05-23T00:10:56.757Z,13.10
2019-05-23T00:13:46.171Z,13.10
2019-05-23T00:16:18.321Z,13.00
2019-05-23T00:18:48.988Z,12.90
2019-05-23T00:21:19.840Z,12.90
2019-05-23T00:23:50.421Z,12.80
2019-05-23T00:26:20.064Z,12.80
2019-05-23T00:28:50.264Z,12.70
2019-05-23T00:31:24.287Z,12.80
2019-05-23T00:33:56.578Z,12.70
2019-05-23T00:36:29.055Z,12.70
2019-05-23T00:38:59.190Z,12.70
2019-05-23T00:41:31.463Z,12.80
2019-05-23T00:44:01.672Z,12.80
2019-05-23T00:46:31.904Z,12.70
2019-05-23T00:49:02.981Z,12.80
2019-05-23T00:51:34.457Z,12.80
2019-05-23T00:54:04.594Z,12.90
2019-05-23T00:56:35.986Z,12.80
2019-05-23T00:59:08.120Z,12.80
2019-05-23T01:01:38.151Z,12.70
2019-05-23T01:04:08.284Z,12.50
2019-05-23T01:06:38.607Z,12.40
2019-05-23T01:09:08.895Z,12.40
2019-05-23T01:11:39.299Z,12.20
2019-05-23T01:14:10.082Z,12.10
2019-05-23T01:16:42.477Z,12.10
2019-05-23T01:19:12.696Z,12.00
2019-05-23T01:21:59.498Z,12.00
2019-05-23T01:24:31.053Z,11.90
2019-05-23T01:27:01.980Z,11.90
2019-05-23T01:29:37.794Z,12.00
2019-05-23T01:32:19.336Z,12.10
2019-05-23T01:34:49.505Z,12.20
2019-05-23T01:37:19.821Z,12.20
2019-05-23T01:39:49.702Z,12.20
2019-05-23T01:42:20.112Z,12.30
2019-05-23T01:44:50.218Z,12.40
2019-05-23T01:47:20.989Z,12.30
2019-05-23T01:49:51.408Z,12.30
2019-05-23T01:52:21.692Z,12.20
2019-05-23T01:54:54.259Z,12.10
2019-05-23T01:57:24.775Z,12.00
2019-05-23T02:00:08.982Z,11.90
2019-05-23T02:02:28.619Z,11.90
2019-05-23T02:04:59.312Z,11.80
2019-05-23T02:07:30.661Z,11.70
2019-05-23T02:10:00.325Z,11.70
2019-05-23T02:12:30.996Z,11.70
2019-05-23T02:15:01.899Z,11.80
2019-05-23T02:17:33.102Z,11.90
2019-05-23T02:20:05.395Z,11.90
2019-05-23T02:22:36.361Z,11.90
2019-05-23T02:25:10.203Z,12.00
2019-05-23T02:27:40.513Z,11.90
2019-05-23T02:30:32.328Z,12.00
2019-05-23T02:32:45.349Z,12.00
2019-05-23T02:35:17.758Z,11.90
2019-05-23T02:37:50.946Z,11.90
2019-05-23T02:40:35.682Z,11.80
2019-05-23T02:43:10.081Z,11.80
2019-05-23T02:45:45.338Z,11.80
2019-05-23T02:48:17.800Z,11.70
2019-05-23T02:51:07.052Z,11.60
2019-05-23T02:53:40.407Z,11.60
2019-05-23T02:56:14.642Z,11.60
2019-05-23T02:58:55.792Z,11.60
2019-05-23T03:01:58.186Z,11.80
2019-05-23T03:04:33.194Z,11.70
2019-05-23T03:07:03.950Z,11.60
2019-05-23T03:09:36.851Z,11.70
2019-05-23T03:12:09.199Z,11.70
2019-05-23T03:14:42.142Z,11.70
2019-05-23T03:17:16.310Z,11.60
2019-05-23T03:19:56.860Z,11.60
2019-05-23T03:22:34.407Z,11.50
2019-05-23T03:25:31.442Z,11.40
2019-05-23T03:28:02.940Z,11.20
2019-05-23T03:30:35.625Z,11.10
2019-05-23T03:33:06.060Z,11.10
2019-05-23T03:35:43.584Z,11.00
2019-05-23T03:38:13.968Z,11.00
2019-05-23T03:40:44.134Z,11.10
2019-05-23T03:43:13.837Z,10.90
2019-05-23T03:45:45.770Z,11.00
2019-05-23T03:48:15.943Z,11.10
2019-05-23T03:50:46.926Z,11.10
2019-05-23T03:53:17.021Z,11.00
2019-05-23T03:55:48.122Z,11.10
2019-05-23T03:58:18.863Z,11.10
2019-05-23T04:00:50.068Z,11.20
2019-05-23T04:03:20.776Z,11.40
2019-05-23T04:05:50.987Z,11.60
2019-05-23T04:08:20.972Z,11.60
2019-05-23T04:10:51.919Z,11.60
2019-05-23T04:13:22.136Z,11.40
2019-05-23T04:15:52.446Z,11.40
2019-05-23T04:18:22.017Z,11.30
2019-05-23T04:20:51.737Z,11.10
2019-05-23T04:23:21.497Z,11.10
2019-05-23T04:25:51.798Z,10.90
2019-05-23T04:28:21.717Z,11.10
2019-05-23T04:30:51.447Z,11.50
2019-05-23T04:33:21.371Z,11.70
2019-05-23T04:35:53.832Z,11.80
2019-05-23T04:38:26.327Z,12.00
2019-05-23T04:40:56.288Z,12.00
2019-05-23T04:43:25.925Z,12.10
2019-05-23T04:45:55.976Z,12.20
2019-05-23T04:48:25.610Z,12.20
2019-05-23T04:50:59.726Z,11.90
2019-05-23T04:53:27.161Z,11.80
2019-05-23T04:55:56.940Z,11.80
2019-05-23T04:58:26.699Z,11.90
2019-05-23T05:00:56.426Z,12.10
2019-05-23T05:03:26.520Z,12.40
2019-05-23T05:05:56.573Z,12.60
2019-05-23T05:08:26.409Z,12.70
2019-05-23T05:10:56.323Z,12.90
2019-05-23T05:13:28.108Z,12.90
2019-05-23T05:15:58.263Z,12.80
2019-05-23T05:18:30.095Z,12.80
2019-05-23T05:20:59.680Z,13.00
2019-05-23T05:23:29.340Z,13.10
2019-05-23T05:25:59.403Z,13.00
2019-05-23T05:28:29.028Z,13.00
2019-05-23T05:30:58.709Z,13.00
2019-05-23T05:33:28.441Z,13.10
2019-05-23T05:35:58.181Z,13.10
2019-05-23T05:38:29.245Z,13.20
2019-05-23T05:40:59.693Z,13.10
2019-05-23T05:43:29.703Z,13.10
2019-05-23T05:45:59.459Z,13.20
2019-05-23T05:48:30.557Z,13.20
2019-05-23T05:51:00.282Z,13.20
2019-05-23T05:53:31.274Z,13.50
2019-05-23T05:56:01.101Z,13.30
2019-05-23T05:58:30.884Z,13.30
2019-05-23T06:01:02.858Z,13.20
2019-05-23T06:03:32.919Z,13.20
2019-05-23T06:06:04.343Z,13.10
2019-05-23T06:08:35.963Z,13.00
2019-05-23T06:11:06.165Z,12.80
2019-05-23T06:13:36.009Z,12.90
2019-05-23T06:16:05.918Z,13.00
2019-05-23T06:18:35.746Z,13.20
2019-05-23T06:21:06.276Z,13.40
2019-05-23T06:23:36.470Z,13.60
2019-05-23T06:26:06.232Z,13.70
2019-05-23T06:28:35.976Z,13.60
2019-05-23T06:31:06.787Z,13.60
2019-05-23T06:33:36.822Z,13.70
2019-05-23T06:36:06.729Z,13.60
2019-05-23T06:38:37.124Z,13.70
2019-05-23T06:41:08.034Z,13.80
2019-05-23T06:43:39.324Z,14.00
2019-05-23T06:46:09.432Z,14.00
2019-05-23T06:48:39.007Z,14.20
2019-05-23T06:51:09.099Z,14.30
2019-05-23T06:53:38.672Z,14.50
2019-05-23T06:56:11.027Z,14.60
2019-05-23T06:58:41.213Z,14.60
2019-05-23T07:01:11.221Z,14.60
2019-05-23T07:03:43.402Z,14.60
2019-05-23T07:06:16.235Z,14.70
2019-05-23T07:08:46.075Z,14.90
2019-05-23T07:11:19.749Z,14.90
2019-05-23T07:13:49.342Z,14.90
2019-05-23T07:16:18.914Z,14.80
2019-05-23T07:18:48.620Z,14.70
2019-05-23T07:21:18.635Z,14.70
2019-05-23T07:23:48.260Z,14.90
2019-05-23T07:26:17.839Z,14.90
2019-05-23T07:28:48.223Z,14.90
2019-05-23T07:31:17.863Z,15.00
2019-05-23T07:34:01.065Z,15.10
2019-05-23T07:36:18.810Z,15.30
2019-05-23T07:38:48.378Z,15.30
2019-05-23T07:41:18.576Z,15.50
2019-05-23T07:43:48.659Z,15.50
2019-05-23T07:46:18.414Z,15.50
2019-05-23T07:48:48.187Z,15.40
2019-05-23T07:51:17.911Z,15.50
2019-05-23T07:53:49.846Z,15.50
2019-05-23T07:56:22.040Z,15.50
2019-05-23T07:58:54.474Z,15.70
2019-05-23T08:01:28.348Z,15.90
2019-05-23T08:03:59.616Z,16.00
2019-05-23T08:06:29.274Z,15.90
2019-05-23T08:08:59.746Z,15.90
2019-05-23T08:11:29.330Z,16.00
2019-05-23T08:13:59.035Z,16.10
2019-05-23T08:16:28.597Z,16.20
2019-05-23T08:18:58.262Z,16.20
2019-05-23T08:21:28.059Z,16.30
2019-05-23T08:23:57.854Z,16.30
2019-05-23T08:26:27.976Z,16.40
2019-05-23T08:29:24.044Z,16.50
2019-05-23T08:31:29.705Z,16.60
2019-05-23T08:34:00.036Z,16.60
2019-05-23T08:36:29.935Z,16.50
2019-05-23T08:39:00.967Z,16.70
2019-05-23T08:41:30.806Z,16.90
2019-05-23T08:44:01.214Z,17.00
2019-05-23T08:46:31.072Z,17.20
2019-05-23T08:49:01.046Z,17.30
2019-05-23T08:51:30.795Z,17.30
2019-05-23T08:54:00.612Z,17.30
2019-05-23T08:56:31.043Z,17.20
2019-05-23T08:59:01.486Z,17.40
2019-05-23T09:01:31.422Z,17.50
2019-05-23T09:04:02.038Z,17.50
2019-05-23T09:06:33.555Z,17.60
2019-05-23T09:09:27.709Z,17.60
2019-05-23T09:11:38.164Z,17.50
2019-05-23T09:14:09.162Z,17.60
2019-05-23T09:16:39.380Z,17.60
2019-05-23T09:19:09.503Z,17.50
2019-05-23T09:21:39.141Z,17.60
2019-05-23T09:24:11.006Z,17.60
2019-05-23T09:26:40.570Z,17.70
2019-05-23T09:29:10.388Z,17.80
2019-05-23T09:31:40.314Z,17.90
2019-05-23T09:34:09.890Z,17.90
2019-05-23T09:36:39.543Z,18.10
2019-05-23T09:39:12.368Z,18.10
2019-05-23T09:41:42.023Z,18.20
2019-05-23T09:44:13.045Z,18.20
2019-05-23T09:46:44.169Z,18.20
2019-05-23T09:49:13.840Z,18.20
2019-05-23T09:51:46.360Z,18.10
2019-05-23T09:54:16.907Z,18.20
2019-05-23T09:56:46.828Z,18.40
2019-05-23T09:59:16.411Z,18.50
2019-05-23T10:01:46.079Z,18.50
2019-05-23T10:04:15.701Z,18.40
2019-05-23T10:06:46.296Z,18.50
2019-05-23T10:09:16.120Z,18.50
2019-05-23T10:11:45.838Z,18.50
2019-05-23T10:14:17.536Z,18.60
2019-05-23T10:16:47.396Z,18.60
2019-05-23T10:19:19.112Z,18.70
2019-05-23T10:21:48.770Z,18.70
2019-05-23T10:24:18.493Z,18.70
2019-05-23T10:26:48.628Z,18.70
2019-05-23T10:29:18.237Z,18.90
2019-05-23T10:31:47.798Z,18.90
2019-05-23T10:34:18.407Z,18.90
2019-05-23T10:36:47.981Z,18.90
2019-05-23T10:39:20.059Z,19.10
2019-05-23T10:41:50.168Z,19.30
2019-05-23T10:44:19.750Z,19.20
2019-05-23T10:46:49.405Z,19.30
2019-05-23T10:49:19.065Z,19.50
2019-05-23T10:51:48.732Z,19.70
2019-05-23T10:54:19.422Z,19.60
2019-05-23T10:56:49.140Z,19.50
2019-05-23T10:59:18.698Z,19.50
2019-05-23T11:01:48.535Z,19.40
2019-05-23T11:04:18.166Z,19.30
2019-05-23T11:06:47.833Z,19.30
2019-05-23T11:09:17.676Z,19.30
2019-05-23T11:11:47.579Z,19.30
2019-05-23T11:14:17.488Z,19.50
2019-05-23T11:16:47.364Z,19.70
2019-05-23T11:19:17.276Z,20.20
2019-05-23T11:21:47.594Z,20.50
2019-05-23T11:24:18.307Z,20.50
2019-05-23T11:26:47.935Z,20.60
2019-05-23T11:29:17.670Z,20.60
2019-05-23T11:31:49.298Z,20.60
2019-05-23T11:34:19.192Z,20.70
2019-05-23T11:36:50.494Z,20.60
2019-05-23T11:39:21.977Z,20.80
2019-05-23T11:41:51.618Z,21.20
2019-05-23T11:44:21.280Z,21.10
2019-05-23T11:46:52.893Z,21.30
2019-05-23T11:49:22.542Z,21.50
2019-05-23T11:51:52.293Z,21.60
2019-05-23T11:54:23.667Z,21.70
2019-05-23T11:56:53.581Z,21.70
2019-05-23T11:59:23.290Z,21.50
2019-05-23T12:01:55.058Z,21.50
2019-05-23T12:04:24.906Z,21.50
2019-05-23T12:06:58.935Z,21.60
2019-05-23T12:09:29.021Z,22.10
2019-05-23T12:11:58.727Z,22.40
2019-05-23T12:14:28.337Z,22.30
2019-05-23T12:16:58.619Z,22.60
2019-05-23T12:19:28.331Z,22.50
2019-05-23T12:21:58.064Z,22.40
2019-05-23T12:24:27.791Z,22.30
2019-05-23T12:26:57.488Z,22.30
2019-05-23T12:29:27.132Z,22.00
2019-05-23T12:31:57.379Z,22.00
2019-05-23T12:34:27.043Z,22.30
2019-05-23T12:37:17.266Z,22.00
2019-05-23T12:39:28.157Z,21.60
2019-05-23T12:41:57.788Z,21.50
2019-05-23T12:44:29.071Z,21.30
2019-05-23T12:46:59.804Z,21.20
2019-05-23T12:49:36.675Z,21.50
2019-05-23T12:52:07.429Z,22.10
2019-05-23T12:54:37.018Z,22.80
2019-05-23T12:57:07.037Z,23.30
2019-05-23T12:59:38.781Z,24.30
2019-05-23T13:02:10.074Z,25.40
2019-05-23T13:04:40.469Z,26.70
2019-05-23T13:07:10.809Z,28.20
2019-05-23T13:09:40.679Z,29.50
2019-05-23T13:12:10.325Z,30.20
2019-05-23T13:14:40.044Z,30.90
2019-05-23T13:17:10.706Z,31.00
2019-05-23T13:19:40.291Z,31.40
2019-05-23T13:22:11.462Z,30.70
2019-05-23T13:24:52.205Z,31.00
2019-05-23T13:27:13.438Z,30.90
2019-05-23T13:29:43.013Z,32.30
2019-05-23T13:32:12.714Z,32.10
2019-05-23T13:34:42.363Z,31.40
2019-05-23T13:37:16.771Z,31.20
2019-05-23T13:39:45.290Z,31.60
2019-05-23T13:42:14.942Z,31.80
2019-05-23T13:44:44.769Z,31.60
2019-05-23T13:47:14.620Z,31.70
2019-05-23T13:49:44.816Z,31.50
2019-05-23T13:52:14.474Z,29.30
2019-05-23T13:54:44.046Z,27.30
2019-05-23T13:57:16.660Z,29.30
2019-05-23T13:59:47.763Z,31.60
2019-05-23T14:02:17.406Z,32.70
2019-05-23T14:04:47.544Z,33.90
2019-05-23T14:07:18.962Z,34.50
2019-05-23T14:09:48.751Z,34.90
2019-05-23T14:12:21.108Z,32.70
2019-05-23T14:14:50.734Z,32.00
2019-05-23T14:17:24.026Z,32.50
2019-05-23T14:19:53.810Z,31.90
2019-05-23T14:22:23.582Z,31.80
2019-05-23T14:24:53.712Z,33.20
2019-05-23T14:27:41.200Z,33.10
2019-05-23T14:30:28.180Z,32.50
2019-05-23T14:33:00.151Z,31.20
2019-05-23T14:35:43.576Z,30.60
2019-05-23T14:38:29.636Z,30.10
2019-05-23T14:40:48.647Z,29.20
2019-05-23T14:43:25.736Z,27.30
2019-05-23T14:45:57.093Z,26.20
2019-05-23T14:48:31.638Z,26.00
2019-05-23T14:51:20.419Z,26.20
2019-05-23T14:53:54.847Z,26.30
2019-05-23T14:56:26.136Z,26.30
2019-05-23T14:58:55.683Z,26.30
2019-05-23T15:01:28.671Z,25.40
2019-05-23T15:03:58.264Z,25.60
2019-05-23T15:06:28.061Z,25.20
2019-05-23T15:08:57.967Z,25.30
2019-05-23T15:11:28.016Z,25.70
2019-05-23T15:13:57.864Z,26.40
2019-05-23T15:16:27.711Z,29.10
2019-05-23T15:18:58.964Z,30.30
2019-05-23T15:21:28.483Z,30.40
2019-05-23T15:23:58.132Z,28.80
2019-05-23T15:26:27.872Z,28.00
2019-05-23T15:28:57.512Z,29.30
2019-05-23T15:31:27.136Z,30.30
2019-05-23T15:33:56.799Z,31.20
2019-05-23T15:36:26.415Z,31.00
2019-05-23T15:39:08.838Z,29.40
2019-05-23T15:41:27.676Z,28.00
2019-05-23T15:43:57.294Z,27.70
2019-05-23T15:46:26.914Z,27.10
2019-05-23T15:48:56.540Z,26.70
2019-05-23T15:51:28.294Z,26.00
2019-05-23T15:54:01.969Z,26.20
2019-05-23T15:56:41.612Z,26.00
2019-05-23T15:59:15.610Z,26.20
2019-05-23T16:02:02.681Z,26.30
2019-05-23T16:04:32.838Z,25.70
2019-05-23T16:07:02.380Z,25.30
2019-05-23T16:09:32.230Z,25.60
2019-05-23T16:12:02.127Z,25.80
2019-05-23T16:14:31.907Z,25.70
2019-05-23T16:17:01.492Z,25.80
2019-05-23T16:19:32.602Z,25.40
2019-05-23T16:22:02.584Z,25.20
2019-05-23T16:24:32.213Z,25.00
2019-05-23T16:27:01.966Z,25.20
2019-05-23T16:29:33.454Z,25.40
2019-05-23T16:32:05.859Z,25.20
2019-05-23T16:34:35.418Z,25.40
2019-05-23T16:37:05.129Z,25.10
2019-05-23T16:39:46.639Z,25.20
2019-05-23T16:42:07.770Z,25.20
2019-05-23T16:44:37.414Z,25.00
2019-05-23T16:47:06.987Z,25.00
2019-05-23T16:49:36.825Z,24.80
2019-05-23T16:52:07.311Z,24.70
2019-05-23T16:54:38.640Z,24.30
2019-05-23T16:57:12.447Z,24.20
2019-05-23T17:00:00.259Z,24.10
2019-05-23T17:02:34.252Z,24.20
2019-05-23T17:05:16.266Z,24.00
2019-05-23T17:08:03.923Z,23.60
2019-05-23T17:10:36.801Z,23.30
2019-05-23T17:13:13.987Z,23.30
2019-05-23T17:15:52.298Z,23.20
2019-05-23T17:18:33.091Z,23.00
2019-05-23T17:21:20.269Z,23.00
2019-05-23T17:24:03.326Z,22.80
2019-05-23T17:26:34.615Z,22.70
2019-05-23T17:29:06.589Z,22.60
2019-05-23T17:31:40.965Z,22.50
2019-05-23T17:34:10.871Z,22.60
2019-05-23T17:36:40.945Z,22.60
2019-05-23T17:39:12.494Z,22.50
2019-05-23T17:41:42.235Z,22.30
2019-05-23T17:44:13.140Z,22.30
2019-05-23T17:46:42.799Z,22.20
2019-05-23T17:49:12.435Z,22.10
2019-05-23T17:51:42.085Z,21.90
2019-05-23T17:54:11.992Z,21.70
2019-05-23T17:56:41.700Z,21.70
2019-05-23T17:59:11.411Z,21.80
2019-05-23T18:01:41.286Z,21.80
2019-05-23T18:04:11.299Z,21.60
2019-05-23T18:06:41.637Z,21.60
2019-05-23T18:09:11.491Z,21.50
2019-05-23T18:11:41.292Z,21.50
2019-05-23T18:14:12.244Z,21.40
2019-05-23T18:16:42.129Z,21.40
2019-05-23T18:19:12.008Z,21.40
2019-05-23T18:21:44.550Z,21.40
2019-05-23T18:24:17.549Z,21.20
2019-05-23T18:26:47.111Z,21.00
2019-05-23T18:29:17.433Z,20.90
2019-05-23T18:31:48.153Z,20.90
2019-05-23T18:34:19.988Z,20.90
2019-05-23T18:36:50.354Z,20.90
2019-05-23T18:39:20.190Z,20.90
2019-05-23T18:41:50.330Z,20.80
2019-05-23T18:44:20.520Z,20.70
2019-05-23T18:46:51.711Z,20.60
2019-05-23T18:49:21.547Z,20.60
2019-05-23T18:51:52.217Z,20.50
2019-05-23T18:54:21.927Z,20.40
2019-05-23T18:56:51.512Z,20.50
2019-05-23T18:59:21.238Z,20.40
2019-05-23T19:01:52.204Z,20.30
2019-05-23T19:04:21.782Z,20.20
2019-05-23T19:06:52.305Z,20.10
2019-05-23T19:09:22.681Z,20.10
2019-05-23T19:11:52.307Z,20.10
2019-05-23T19:14:22.033Z,19.80
2019-05-23T19:16:52.275Z,19.80
2019-05-23T19:19:22.584Z,19.80
2019-05-23T19:21:52.502Z,19.90
2019-05-23T19:24:22.277Z,19.90
2019-05-23T19:26:53.690Z,19.80
2019-05-23T19:29:23.394Z,19.80
2019-05-23T19:31:53.043Z,19.80
2019-05-23T19:34:22.609Z,19.80
2019-05-23T19:36:52.705Z,19.70
2019-05-23T19:39:23.788Z,19.50
2019-05-23T19:41:53.651Z,19.30
2019-05-23T19:44:23.225Z,19.30
2019-05-23T19:46:52.941Z,19.20
2019-05-23T19:49:26.858Z,19.20
2019-05-23T19:51:54.467Z,19.00
2019-05-23T19:54:24.180Z,18.80
2019-05-23T19:56:53.808Z,18.70
2019-05-23T19:59:23.563Z,18.70
2019-05-23T20:02:04.640Z,18.60
2019-05-23T20:04:38.814Z,18.50
2019-05-23T20:07:09.088Z,18.40
2019-05-23T20:09:38.802Z,18.40
2019-05-23T20:12:09.212Z,18.40
2019-05-23T20:14:38.853Z,18.40
2019-05-23T20:17:08.494Z,18.40
2019-05-23T20:19:38.132Z,18.30
2019-05-23T20:22:08.071Z,18.20
2019-05-23T20:24:37.704Z,18.10
2019-05-23T20:27:07.265Z,18.10
2019-05-23T20:29:36.842Z,17.90
2019-05-23T20:32:07.606Z,17.80
2019-05-23T20:34:38.543Z,17.80
2019-05-23T20:37:09.248Z,17.60
2019-05-23T20:39:38.838Z,17.50
2019-05-23T20:42:11.811Z,17.40
2019-05-23T20:44:39.807Z,17.50
2019-05-23T20:47:09.806Z,17.50
2019-05-23T20:49:39.439Z,17.50
2019-05-23T20:52:09.148Z,17.50
2019-05-23T20:54:38.885Z,17.50
2019-05-23T20:57:08.819Z,17.50
2019-05-23T20:59:38.476Z,17.40
2019-05-23T21:02:08.207Z,17.30
2019-05-23T21:04:37.809Z,17.30
2019-05-23T21:07:07.449Z,17.20
2019-05-23T21:09:37.082Z,17.20
2019-05-23T21:12:07.801Z,17.20
2019-05-23T21:14:37.447Z,17.10
2019-05-23T21:17:08.084Z,17.20
2019-05-23T21:19:37.731Z,17.20
2019-05-23T21:22:07.319Z,17.20
2019-05-23T21:24:36.957Z,17.20
2019-05-23T21:27:06.603Z,17.10
2019-05-23T21:29:36.332Z,17.00
2019-05-23T21:32:06.070Z,16.90
2019-05-23T21:34:35.729Z,16.90
2019-05-23T21:37:05.831Z,16.90
2019-05-23T21:39:35.584Z,16.80
2019-05-23T21:42:05.356Z,16.90
2019-05-23T21:44:34.941Z,16.80
2019-05-23T21:47:04.578Z,16.70
2019-05-23T21:49:34.220Z,16.60
2019-05-23T21:52:05.169Z,16.60
2019-05-23T21:54:34.744Z,16.50
2019-05-23T21:57:04.395Z,16.50
2019-05-23T21:59:34.041Z,16.50
2019-05-23T22:02:17.436Z,16.40
2019-05-23T22:04:54.692Z,16.40
2019-05-23T22:07:24.335Z,16.20
2019-05-23T22:09:54.142Z,16.20
2019-05-23T22:12:23.946Z,16.20
2019-05-23T22:14:53.647Z,16.30
2019-05-23T22:17:24.937Z,16.40
2019-05-23T22:19:54.575Z,16.30
2019-05-23T22:22:24.394Z,16.20
2019-05-23T22:24:55.052Z,16.20
2019-05-23T22:27:24.650Z,16.20
2019-05-23T22:29:54.375Z,16.10
2019-05-23T22:32:25.650Z,16.20
2019-05-23T22:34:56.928Z,16.20
2019-05-23T22:37:27.516Z,16.10
2019-05-23T22:39:57.237Z,16.10
2019-05-23T22:42:27.549Z,16.10
2019-05-23T22:44:58.079Z,16.10
2019-05-23T22:47:27.716Z,16.00
2019-05-23T22:49:57.296Z,16.00
2019-05-23T22:52:26.867Z,16.00
2019-05-23T22:54:56.475Z,16.00
2019-05-23T22:57:28.479Z,15.90
2019-05-23T22:59:57.953Z,15.60
2019-05-23T23:02:27.737Z,15.30
2019-05-23T23:04:57.316Z,15.40
2019-05-23T23:07:26.973Z,15.30
2019-05-23T23:09:56.603Z,15.50
2019-05-23T23:12:26.611Z,15.60
2019-05-23T23:14:56.259Z,15.70
2019-05-23T23:17:25.996Z,15.70
2019-05-23T23:19:55.570Z,15.60
2019-05-23T23:22:25.206Z,15.60
2019-05-23T23:24:54.778Z,15.70
2019-05-23T23:27:24.409Z,15.70
2019-05-23T23:29:53.988Z,15.70
2019-05-23T23:32:23.723Z,15.60
2019-05-23T23:34:53.447Z,15.50
2019-05-23T23:37:23.090Z,15.40
2019-05-23T23:39:52.667Z,15.30
2019-05-23T23:42:22.375Z,15.40
2019-05-23T23:44:51.103Z,15.40
2019-05-23T23:47:38.138Z,15.50
2019-05-23T23:50:26.975Z,15.50
2019-05-23T23:53:13.867Z,15.50
2019-05-23T23:56:01.200Z,15.50
2019-05-23T23:58:30.001Z,15.50
